createdAt,value
2018-08-19T00:02:26.234Z,46.38
2018-08-19T00:05:08.500Z,46.57
2018-08-19T00:07:39.864Z,46.73
2018-08-19T00:10:09.777Z,47.09
2018-08-19T00:12:45.085Z,47.81
2018-08-19T00:15:15.459Z,47.14
2018-08-19T00:17:46.202Z,48.26
2018-08-19T00:20:16.128Z,48.34
2018-08-19T00:22:46.214Z,49.07
2018-08-19T00:25:26.686Z,48.34
2018-08-19T00:27:57.161Z,48.98
2018-08-19T00:30:26.868Z,49.80
2018-08-19T00:32:56.697Z,49.09
2018-08-19T00:35:27.560Z,48.62
2018-08-19T00:37:58.097Z,48.33
2018-08-19T00:40:28.144Z,49.90
2018-08-19T00:42:58.306Z,49.33
2018-08-19T00:45:28.704Z,48.59
2018-08-19T00:47:59.382Z,47.79
2018-08-19T00:50:29.188Z,48.17
2018-08-19T00:52:58.862Z,47.99
2018-08-19T00:55:32.061Z,49.68
2018-08-19T00:58:02.779Z,47.13
2018-08-19T01:00:32.429Z,48.40
2018-08-19T01:03:02.160Z,48.53
2018-08-19T01:05:32.110Z,46.58
2018-08-19T01:08:03.207Z,46.82
2018-08-19T01:10:33.093Z,47.97
2018-08-19T01:13:03.424Z,49.20
2018-08-19T01:15:33.211Z,49.40
2018-08-19T01:18:04.828Z,48.87
2018-08-19T01:20:34.715Z,48.11
2018-08-19T01:23:04.599Z,49.63
2018-08-19T01:25:34.426Z,50.09
2018-08-19T01:28:04.480Z,50.35
2018-08-19T01:30:34.250Z,50.15
2018-08-19T01:33:03.912Z,49.34
2018-08-19T01:40:33.269Z,48.93
2018-08-19T01:43:03.002Z,49.32
2018-08-19T01:45:32.813Z,49.35
2018-08-19T01:48:02.634Z,49.18
2018-08-19T01:50:32.412Z,49.09
2018-08-19T01:53:02.086Z,47.98
2018-08-19T01:55:32.449Z,48.80
2018-08-19T01:58:02.338Z,49.42
2018-08-19T02:00:31.977Z,48.73
2018-08-19T02:03:06.507Z,49.66
2018-08-19T02:05:36.288Z,49.31
2018-08-19T02:08:07.449Z,48.48
2018-08-19T02:10:37.397Z,48.23
2018-08-19T02:13:07.199Z,50.09
2018-08-19T02:15:36.903Z,50.77
2018-08-19T02:18:08.179Z,50.97
2018-08-19T02:20:42.783Z,50.45
2018-08-19T02:23:13.725Z,50.94
2018-08-19T02:25:47.273Z,52.74
2018-08-19T02:28:22.693Z,50.32
2018-08-19T02:30:57.332Z,50.49
2018-08-19T02:33:27.247Z,50.49
2018-08-19T02:36:00.996Z,50.47
2018-08-19T02:38:30.895Z,49.86
2018-08-19T02:41:00.471Z,48.86
2018-08-19T02:43:30.227Z,51.73
2018-08-19T02:45:59.923Z,50.56
2018-08-19T02:48:43.152Z,50.03
2018-08-19T02:51:15.010Z,50.56
2018-08-19T02:53:46.084Z,50.46
2018-08-19T02:56:16.764Z,50.87
2018-08-19T02:58:48.021Z,53.04
2018-08-19T03:01:18.995Z,51.27
2018-08-19T03:03:48.798Z,50.54
2018-08-19T03:06:18.455Z,50.52
2018-08-19T03:09:00.033Z,50.02
2018-08-19T03:11:29.942Z,49.52
2018-08-19T03:13:59.625Z,52.04
2018-08-19T03:16:29.408Z,53.27
2018-08-19T03:19:00.298Z,52.78
2018-08-19T03:21:29.990Z,50.61
2018-08-19T03:23:59.726Z,50.91
2018-08-19T03:26:31.542Z,50.52
2018-08-19T03:29:07.373Z,49.21
2018-08-19T03:31:37.263Z,49.30
2018-08-19T03:34:07.069Z,48.41
2018-08-19T03:36:37.078Z,48.79
2018-08-19T03:39:17.495Z,48.35
2018-08-19T03:41:47.561Z,49.00
2018-08-19T03:44:18.302Z,49.05
2018-08-19T03:46:48.003Z,48.67
2018-08-19T03:49:18.844Z,47.82
2018-08-19T03:51:48.618Z,46.89
2018-08-19T03:54:18.282Z,48.22
2018-08-19T03:56:47.901Z,47.74
2018-08-19T03:59:17.593Z,49.99
2018-08-19T04:01:47.381Z,48.53
2018-08-19T04:04:18.311Z,47.71
2018-08-19T04:06:48.001Z,47.98
2018-08-19T04:09:17.688Z,48.27
2018-08-19T04:11:56.961Z,48.21
2018-08-19T04:14:29.924Z,48.11
2018-08-19T04:17:01.161Z,47.93
2018-08-19T04:19:31.926Z,47.61
2018-08-19T04:22:04.080Z,47.79
2018-08-19T04:24:34.530Z,46.85
2018-08-19T04:27:09.005Z,47.47
2018-08-19T04:29:40.396Z,47.84
2018-08-19T04:32:18.604Z,46.85
2018-08-19T04:34:48.413Z,45.74
2018-08-19T04:37:18.010Z,46.45
2018-08-19T04:39:48.867Z,46.90
2018-08-19T04:42:18.676Z,46.86
2018-08-19T04:44:48.322Z,46.53
2018-08-19T04:47:30.457Z,46.54
2018-08-19T04:50:00.663Z,45.53
2018-08-19T04:52:32.984Z,45.84
2018-08-19T04:55:02.879Z,45.36
2018-08-19T04:57:32.674Z,46.75
2018-08-19T05:00:02.368Z,45.56
2018-08-19T05:02:32.023Z,45.36
2018-08-19T05:05:01.678Z,45.70
2018-08-19T05:07:31.564Z,44.87
2018-08-19T05:10:01.435Z,45.18
2018-08-19T05:12:31.229Z,45.22
2018-08-19T05:15:01.013Z,44.34
2018-08-19T05:17:30.949Z,50.66
2018-08-19T05:20:12.255Z,48.29
2018-08-19T05:22:43.536Z,44.80
2018-08-19T05:25:13.434Z,44.99
2018-08-19T05:27:44.520Z,46.45
2018-08-19T05:30:15.130Z,47.60
2018-08-19T05:32:49.883Z,44.42
2018-08-19T05:35:19.745Z,47.86
2018-08-19T05:37:49.443Z,45.89
2018-08-19T05:40:19.997Z,44.49
2018-08-19T05:42:49.820Z,45.19
2018-08-19T05:45:19.832Z,44.90
2018-08-19T05:48:00.334Z,44.21
2018-08-19T05:50:30.929Z,42.95
2018-08-19T05:53:00.725Z,44.83
2018-08-19T05:55:30.436Z,47.23
2018-08-19T05:58:00.157Z,48.68
2018-08-19T06:00:30.601Z,47.84
2018-08-19T06:03:02.259Z,47.37
2018-08-19T06:05:32.087Z,45.75
2018-08-19T06:08:07.124Z,45.55
2018-08-19T06:10:37.636Z,45.02
2018-08-19T06:13:08.263Z,44.83
2018-08-19T06:15:38.290Z,43.49
2018-08-19T06:18:08.244Z,42.54
2018-08-19T06:20:38.425Z,44.27
2018-08-19T06:23:08.084Z,44.40
2018-08-19T06:25:37.953Z,42.98
2018-08-19T06:28:07.750Z,42.72
2018-08-19T06:30:37.520Z,41.97
2018-08-19T06:33:07.400Z,40.77
2018-08-19T06:35:37.247Z,39.84
2018-08-19T06:38:07.065Z,39.33
2018-08-19T06:40:36.803Z,39.02
2018-08-19T06:43:06.630Z,40.06
2018-08-19T06:45:36.454Z,40.08
2018-08-19T06:48:06.478Z,39.26
2018-08-19T06:50:36.793Z,37.71
2018-08-19T06:53:06.533Z,36.60
2018-08-19T06:55:36.271Z,35.38
2018-08-19T06:58:06.041Z,35.79
2018-08-19T07:00:35.993Z,36.27
2018-08-19T07:03:06.861Z,34.90
2018-08-19T07:05:36.679Z,33.38
2018-08-19T07:08:06.437Z,33.07
2018-08-19T07:10:37.903Z,33.69
2018-08-19T07:13:11.790Z,32.09
2018-08-19T07:15:42.810Z,32.33
2018-08-19T07:18:16.709Z,32.21
2018-08-19T07:20:46.912Z,32.34
2018-08-19T07:23:16.554Z,33.27
2018-08-19T07:25:46.972Z,31.89
2018-08-19T07:28:18.080Z,32.86
2018-08-19T07:30:48.717Z,33.02
2018-08-19T07:33:18.319Z,34.53
2018-08-19T07:35:48.028Z,34.62
2018-08-19T07:38:17.815Z,33.21
2018-08-19T07:40:47.486Z,32.60
2018-08-19T07:43:17.203Z,32.17
2018-08-19T07:45:46.890Z,30.02
2018-08-19T07:48:16.579Z,28.60
2018-08-19T07:50:46.234Z,27.66
2018-08-19T07:53:15.969Z,26.72
2018-08-19T07:55:45.627Z,27.08
2018-08-19T07:58:18.940Z,26.19
2018-08-19T08:00:49.797Z,23.65
2018-08-19T08:03:19.274Z,24.47
2018-08-19T08:05:49.121Z,23.89
2018-08-19T08:08:18.845Z,21.21
2018-08-19T08:10:48.483Z,21.77
2018-08-19T08:13:18.391Z,21.03
2018-08-19T08:15:55.895Z,19.60
2018-08-19T08:18:26.478Z,19.48
2018-08-19T08:21:15.586Z,21.04
2018-08-19T08:23:45.831Z,19.17
2018-08-19T08:26:16.214Z,15.94
2018-08-19T08:28:53.054Z,16.54
2018-08-19T08:31:23.494Z,16.98
2018-08-19T08:33:54.599Z,16.48
2018-08-19T08:36:25.011Z,16.31
2018-08-19T08:38:55.371Z,15.56
2018-08-19T08:41:25.027Z,16.94
2018-08-19T08:43:54.665Z,14.93
2018-08-19T08:46:24.396Z,15.52
2018-08-19T08:48:54.036Z,15.98
2018-08-19T08:51:23.783Z,15.13
2018-08-19T08:53:53.637Z,15.18
2018-08-19T08:56:23.593Z,16.42
2018-08-19T08:58:53.415Z,17.28
2018-08-19T09:01:23.109Z,16.45
2018-08-19T09:03:53.009Z,14.80
2018-08-19T09:06:28.945Z,13.93
2018-08-19T09:08:59.104Z,14.79
2018-08-19T09:11:29.035Z,13.98
2018-08-19T09:13:58.852Z,15.06
2018-08-19T09:16:28.748Z,14.20
2018-08-19T09:18:58.502Z,13.66
2018-08-19T09:21:28.382Z,13.59
2018-08-19T09:23:58.209Z,13.63
2018-08-19T09:26:27.913Z,14.59
2018-08-19T09:28:57.617Z,14.19
2018-08-19T09:31:27.421Z,14.40
2018-08-19T09:33:57.275Z,15.45
2018-08-19T09:36:27.159Z,14.62
2018-08-19T09:38:56.873Z,13.71
2018-08-19T09:41:26.687Z,14.03
2018-08-19T09:43:56.440Z,14.09
2018-08-19T09:46:26.149Z,13.42
2018-08-19T09:48:55.784Z,13.40
2018-08-19T09:51:25.668Z,13.15
2018-08-19T09:53:55.420Z,12.58
2018-08-19T09:56:29.264Z,13.41
2018-08-19T09:59:04.925Z,12.57
2018-08-19T10:01:39.881Z,12.59
2018-08-19T10:04:14.493Z,12.74
2018-08-19T10:06:44.221Z,12.68
2018-08-19T10:09:14.286Z,13.46
2018-08-19T10:11:44.040Z,12.15
2018-08-19T10:14:13.918Z,13.18
2018-08-19T10:16:46.689Z,12.12
2018-08-19T10:19:17.364Z,11.78
2018-08-19T10:21:47.462Z,13.05
2018-08-19T10:24:24.641Z,11.82
2018-08-19T10:26:54.317Z,12.24
2018-08-19T10:29:25.243Z,12.17
2018-08-19T10:31:59.928Z,11.02
2018-08-19T10:34:34.049Z,11.04
2018-08-19T10:37:34.404Z,11.34
2018-08-19T10:40:04.006Z,11.73
2018-08-19T10:42:33.821Z,11.60
2018-08-19T10:45:09.707Z,11.76
2018-08-19T10:47:39.543Z,12.58
2018-08-19T10:50:09.625Z,13.69
2018-08-19T10:52:43.059Z,12.90
2018-08-19T10:55:14.007Z,12.41
2018-08-19T10:57:44.431Z,13.56
2018-08-19T11:00:17.945Z,13.91
2018-08-19T11:02:47.617Z,14.68
2018-08-19T11:05:17.404Z,14.99
2018-08-19T11:07:48.341Z,15.75
2018-08-19T11:10:23.848Z,16.48
2018-08-19T11:12:56.033Z,16.64
2018-08-19T11:15:54.057Z,17.43
2018-08-19T11:18:41.506Z,17.38
2018-08-19T11:21:14.548Z,15.03
2018-08-19T11:23:46.119Z,14.24
2018-08-19T11:26:15.952Z,14.69
2018-08-19T11:28:48.896Z,15.38
2018-08-19T11:31:25.393Z,16.09
2018-08-19T11:33:57.569Z,16.59
2018-08-19T11:36:33.728Z,16.57
2018-08-19T11:39:03.662Z,17.44
2018-08-19T11:41:34.883Z,17.61
2018-08-19T11:44:16.181Z,17.64
2018-08-19T11:46:46.287Z,18.06
2018-08-19T11:49:17.524Z,18.12
2018-08-19T11:51:56.716Z,18.59
2018-08-19T11:54:27.529Z,19.11
2018-08-19T11:57:08.348Z,17.59
2018-08-19T11:59:46.569Z,15.32
2018-08-19T12:02:19.824Z,15.15
2018-08-19T12:04:50.608Z,15.33
2018-08-19T12:07:20.835Z,17.03
2018-08-19T12:09:58.361Z,17.32
2018-08-19T12:12:43.834Z,17.59
2018-08-19T12:15:13.773Z,19.07
2018-08-19T12:17:43.541Z,19.41
2018-08-19T12:20:13.508Z,19.28
2018-08-19T12:22:44.329Z,18.11
2018-08-19T12:25:14.502Z,17.25
2018-08-19T12:27:44.077Z,16.24
2018-08-19T12:30:16.178Z,16.57
2018-08-19T12:32:45.936Z,16.34
2018-08-19T12:35:15.951Z,16.13
2018-08-19T12:37:45.637Z,17.32
2018-08-19T12:40:15.284Z,19.18
2018-08-19T12:42:49.929Z,18.73
2018-08-19T12:45:20.078Z,19.43
2018-08-19T12:47:49.680Z,20.54
2018-08-19T12:50:19.527Z,20.64
2018-08-19T12:52:50.641Z,19.91
2018-08-19T12:55:21.571Z,20.53
2018-08-19T12:57:56.392Z,20.82
2018-08-19T13:00:26.956Z,21.29
2018-08-19T13:02:56.949Z,20.06
2018-08-19T13:05:27.523Z,21.62
2018-08-19T13:07:57.355Z,21.59
2018-08-19T13:10:34.889Z,21.20
2018-08-19T13:13:04.717Z,20.70
2018-08-19T13:15:35.047Z,19.89
2018-08-19T13:18:04.622Z,21.23
2018-08-19T13:20:34.386Z,19.12
2018-08-19T13:23:05.101Z,19.92
2018-08-19T13:25:35.763Z,20.20
2018-08-19T13:28:05.591Z,19.89
2018-08-19T13:30:35.311Z,21.80
2018-08-19T13:33:05.055Z,23.05
2018-08-19T13:35:34.882Z,24.36
2018-08-19T13:38:04.701Z,26.33
2018-08-19T13:40:34.520Z,27.10
2018-08-19T13:43:04.408Z,25.41
2018-08-19T13:45:34.153Z,25.05
2018-08-19T13:48:04.131Z,26.36
2018-08-19T13:50:33.876Z,26.11
2018-08-19T13:53:03.607Z,25.81
2018-08-19T13:55:33.428Z,25.58
2018-08-19T13:58:03.321Z,24.86
2018-08-19T14:00:34.005Z,23.57
2018-08-19T14:03:03.812Z,25.63
2018-08-19T14:05:34.426Z,24.30
2018-08-19T14:08:04.196Z,24.93
2018-08-19T14:10:33.870Z,23.84
2018-08-19T14:13:03.676Z,23.15
2018-08-19T14:15:33.470Z,23.45
2018-08-19T14:18:03.196Z,20.71
2018-08-19T14:20:32.819Z,21.40
2018-08-19T14:23:02.402Z,20.95
2018-08-19T14:25:32.306Z,19.25
2018-08-19T14:28:02.345Z,20.55
2018-08-19T14:30:32.263Z,19.97
2018-08-19T14:33:01.985Z,22.39
2018-08-19T14:35:31.760Z,22.21
2018-08-19T14:38:01.588Z,21.30
2018-08-19T14:40:31.483Z,20.96
2018-08-19T14:43:01.272Z,20.72
2018-08-19T14:45:31.117Z,20.88
2018-08-19T14:48:00.908Z,21.11
2018-08-19T14:50:30.680Z,22.05
2018-08-19T14:53:00.423Z,22.64
2018-08-19T14:55:30.289Z,23.32
2018-08-19T14:58:00.107Z,23.98
2018-08-19T15:00:29.964Z,23.29
2018-08-19T15:02:59.753Z,23.14
2018-08-19T15:05:29.491Z,23.68
2018-08-19T15:08:07.005Z,23.51
2018-08-19T15:10:37.088Z,24.76
2018-08-19T15:13:06.949Z,24.85
2018-08-19T15:15:36.865Z,26.30
2018-08-19T15:18:06.863Z,27.30
2018-08-19T15:20:37.815Z,27.17
2018-08-19T15:23:18.839Z,29.20
2018-08-19T15:25:49.660Z,31.30
2018-08-19T15:28:19.961Z,32.40
2018-08-19T15:30:49.801Z,32.84
2018-08-19T15:33:19.725Z,32.13
2018-08-19T15:35:50.361Z,32.09
2018-08-19T15:38:20.284Z,31.69
2018-08-19T15:40:50.672Z,31.31
2018-08-19T15:43:20.340Z,31.07
2018-08-19T15:45:51.081Z,31.09
2018-08-19T15:48:20.893Z,31.74
2018-08-19T15:50:54.037Z,32.64
2018-08-19T15:53:23.783Z,33.23
2018-08-19T15:55:54.809Z,34.49
2018-08-19T15:58:24.890Z,32.14
2018-08-19T16:00:54.703Z,32.07
2018-08-19T16:03:24.536Z,33.00
2018-08-19T16:05:55.620Z,32.63
2018-08-19T16:08:25.545Z,32.06
2018-08-19T16:10:55.490Z,32.36
2018-08-19T16:13:25.348Z,31.62
2018-08-19T16:15:55.194Z,33.71
2018-08-19T16:18:25.026Z,34.94
2018-08-19T16:20:59.832Z,34.16
2018-08-19T16:23:29.838Z,34.44
2018-08-19T16:26:00.745Z,35.97
2018-08-19T16:28:30.730Z,35.53
2018-08-19T16:31:00.658Z,36.36
2018-08-19T16:33:30.581Z,35.23
2018-08-19T16:36:00.717Z,36.40
2018-08-19T16:38:30.589Z,36.45
2018-08-19T16:41:00.803Z,37.16
2018-08-19T16:43:30.753Z,36.74
2018-08-19T16:46:00.560Z,36.13
2018-08-19T16:48:30.434Z,37.46
2018-08-19T16:51:00.349Z,37.37
2018-08-19T16:53:30.128Z,38.34
2018-08-19T16:55:59.992Z,37.56
2018-08-19T16:58:29.767Z,37.07
2018-08-19T17:00:59.644Z,37.83
2018-08-19T17:03:34.889Z,37.83
2018-08-19T17:06:07.626Z,37.41
2018-08-19T17:08:37.512Z,38.44
2018-08-19T17:11:07.658Z,37.43
2018-08-19T17:13:37.479Z,37.87
2018-08-19T17:16:07.277Z,37.28
2018-08-19T17:18:36.974Z,37.14
2018-08-19T17:21:06.775Z,38.20
2018-08-19T17:23:36.688Z,38.30
2018-08-19T17:26:13.464Z,37.90
2018-08-19T17:28:43.449Z,38.20
2018-08-19T17:31:13.229Z,37.80
2018-08-19T17:33:42.993Z,35.65
2018-08-19T17:36:17.142Z,35.91
2018-08-19T17:38:47.010Z,37.25
2018-08-19T17:41:16.588Z,38.19
2018-08-19T17:43:46.267Z,37.05
2018-08-19T17:46:17.500Z,37.43
2018-08-19T17:48:47.265Z,37.61
2018-08-19T17:51:35.707Z,37.43
2018-08-19T17:54:15.206Z,36.96
2018-08-19T17:56:44.843Z,36.29
2018-08-19T17:59:14.685Z,37.03
2018-08-19T18:01:45.108Z,36.24
2018-08-19T18:04:14.877Z,36.76
2018-08-19T18:06:44.602Z,36.71
2018-08-19T18:09:16.933Z,36.94
2018-08-19T18:11:53.428Z,36.55
2018-08-19T18:14:24.290Z,35.84
2018-08-19T18:16:54.057Z,35.48
2018-08-19T18:19:23.736Z,35.11
2018-08-19T18:21:53.565Z,34.19
2018-08-19T18:24:24.074Z,36.33
2018-08-19T18:26:53.810Z,35.85
2018-08-19T18:29:23.797Z,35.38
2018-08-19T18:31:53.646Z,35.07
2018-08-19T18:34:23.425Z,35.10
2018-08-19T18:36:53.172Z,35.36
2018-08-19T18:39:22.923Z,35.46
2018-08-19T18:41:52.767Z,35.65
2018-08-19T18:44:22.585Z,35.78
2018-08-19T18:46:52.344Z,36.54
2018-08-19T18:49:24.244Z,36.41
2018-08-19T18:51:55.339Z,36.21
2018-08-19T18:54:30.190Z,35.24
2018-08-19T18:57:06.056Z,35.48
2018-08-19T18:59:35.871Z,35.62
2018-08-19T19:02:05.699Z,36.42
2018-08-19T19:04:36.891Z,36.09
2018-08-19T19:07:06.755Z,36.15
2018-08-19T19:09:41.659Z,36.94
2018-08-19T19:12:11.477Z,36.54
2018-08-19T19:14:42.127Z,37.09
2018-08-19T19:17:11.948Z,37.86
2018-08-19T19:19:46.689Z,35.84
2018-08-19T19:22:16.564Z,35.99
2018-08-19T19:24:46.983Z,36.57
2018-08-19T19:27:16.763Z,35.67
2018-08-19T19:29:50.862Z,36.21
2018-08-19T19:32:27.172Z,35.27
2018-08-19T19:35:00.902Z,34.60
2018-08-19T19:37:30.442Z,35.42
2018-08-19T19:40:05.987Z,35.28
2018-08-19T19:42:35.748Z,35.96
2018-08-19T19:45:07.570Z,36.73
2018-08-19T19:47:37.308Z,37.02
2018-08-19T19:50:08.701Z,37.47
2018-08-19T19:52:41.479Z,36.98
2018-08-19T19:55:12.417Z,36.64
2018-08-19T19:57:42.048Z,36.78
2018-08-19T20:00:11.805Z,36.38
2018-08-19T20:02:41.541Z,36.96
2018-08-19T20:05:16.348Z,37.14
2018-08-19T20:07:46.057Z,36.84
2018-08-19T20:10:19.864Z,36.01
2018-08-19T20:12:49.528Z,36.68
2018-08-19T20:15:19.394Z,38.27
2018-08-19T20:17:49.076Z,38.61
2018-08-19T20:20:18.882Z,36.86
2018-08-19T20:22:48.637Z,37.21
2018-08-19T20:25:18.402Z,39.02
2018-08-19T20:27:49.541Z,39.72
2018-08-19T20:30:19.299Z,39.05
2018-08-19T20:32:49.162Z,38.78
2018-08-19T20:35:19.532Z,39.22
2018-08-19T20:37:49.324Z,38.54
2018-08-19T20:40:19.164Z,39.07
2018-08-19T20:42:48.858Z,38.15
2018-08-19T20:45:18.565Z,38.55
2018-08-19T20:47:48.349Z,37.76
2018-08-19T20:50:18.157Z,37.46
2018-08-19T20:52:49.447Z,38.36
2018-08-19T20:55:19.221Z,39.94
2018-08-19T20:57:48.916Z,41.41
2018-08-19T21:00:18.601Z,39.50
2018-08-19T21:02:48.313Z,39.01
2018-08-19T21:05:18.092Z,39.21
2018-08-19T21:07:47.810Z,40.76
2018-08-19T21:10:17.585Z,38.60
2018-08-19T21:12:47.414Z,38.02
2018-08-19T21:15:22.591Z,38.36
2018-08-19T21:17:52.456Z,39.99
2018-08-19T21:20:22.124Z,39.24
2018-08-19T21:22:52.148Z,38.17
2018-08-19T21:25:22.276Z,38.29
2018-08-19T21:27:51.884Z,38.49
2018-08-19T21:30:21.597Z,40.02
2018-08-19T21:32:51.300Z,39.21
2018-08-19T21:35:21.003Z,39.09
2018-08-19T21:37:50.726Z,38.83
2018-08-19T21:40:27.238Z,39.78
2018-08-19T21:42:58.532Z,38.94
2018-08-19T21:45:29.196Z,39.20
2018-08-19T21:47:59.040Z,39.07
2018-08-19T21:50:28.828Z,40.28
2018-08-19T21:53:01.960Z,40.08
2018-08-19T21:55:35.229Z,40.25
2018-08-19T21:58:05.435Z,40.46
2018-08-19T22:00:39.090Z,42.87
2018-08-19T22:03:18.450Z,41.94
2018-08-19T22:07:13.164Z,42.18
2018-08-19T22:09:42.873Z,40.49
2018-08-19T22:12:12.559Z,39.99
2018-08-19T22:14:42.351Z,39.28
2018-08-19T22:17:12.270Z,38.65
2018-08-19T22:19:42.077Z,39.31
2018-08-19T22:22:11.943Z,40.29
2018-08-19T22:24:41.658Z,40.06
2018-08-19T22:27:17.516Z,39.79
2018-08-19T22:29:47.349Z,39.51
2018-08-19T22:32:17.230Z,40.84
2018-08-19T22:34:47.395Z,41.14
2018-08-19T22:37:17.248Z,40.57
2018-08-19T22:39:47.688Z,40.33
2018-08-19T22:42:17.420Z,39.78
2018-08-19T22:44:48.297Z,40.48
2018-08-19T22:47:18.069Z,40.67
2018-08-19T22:49:47.841Z,41.42
2018-08-19T22:52:23.753Z,40.82
2018-08-19T22:54:57.520Z,40.98
2018-08-19T22:57:27.940Z,41.18
2018-08-19T22:59:57.591Z,40.49
2018-08-19T23:02:27.519Z,40.98
2018-08-19T23:04:57.876Z,42.20
2018-08-19T23:07:27.773Z,40.38
2018-08-19T23:09:57.503Z,40.11
2018-08-19T23:12:27.201Z,40.06
2018-08-19T23:15:07.524Z,40.14
2018-08-19T23:17:37.326Z,39.84
2018-08-19T23:20:07.240Z,39.94
2018-08-19T23:22:36.936Z,40.17
2018-08-19T23:25:07.617Z,40.06
2018-08-19T23:27:37.324Z,39.89
2018-08-19T23:30:07.075Z,39.24
2018-08-19T23:32:36.831Z,39.34
2018-08-19T23:35:06.544Z,39.07
2018-08-19T23:37:36.262Z,39.20
2018-08-19T23:40:06.029Z,38.96
2018-08-19T23:42:35.870Z,38.65
2018-08-19T23:45:05.780Z,39.20
2018-08-19T23:47:35.521Z,39.74
2018-08-19T23:50:05.588Z,40.00
2018-08-19T23:52:35.245Z,39.54
2018-08-19T23:55:05.387Z,39.94
2018-08-19T23:57:35.048Z,39.43
